Portada
METAR-TAF:

METAR-TAF

Aeropuertos :

Gran Canaria, España

Aeropuerto de Gran Canaria

latitud: 27-56N, longitud: 015-23W, altitud: 23 m

Observación

El informe se hizo hace 12 minutos, a las 13:00 UTC
Viento 14 kt del norte-noreste
Temperatura 27°C
Humedad 66%
Presión 1022 hPa
Visibilidad 10 km o más
Escasas nubes a una altura de 2000 ft

METAR: GCLP 171300Z 03014KT 9999 FEW020 27/20 Q1022 NOSIG

Hora: 14:12 (13:12 UTC)

Pronóstico

El informe se hizo hace 5 horas y 12 minutos, a las 08:00 UTC
Pronóstico válido del 17 a las 09 UTC al 18 a las 09 UTC
Viento 20 kt del norte
Visibilidad 10 km o más
Escasas nubes a una altura de 2000 ft

TAF: GCLP 170800Z 1709/1809 01020KT 9999 FEW020 TX28/1713Z TN20/1806Z

Observaciones y pronósticos meteorológicos de más de 4000 aeropuertos (mensajes METAR y TAF).

Los puntos amarillos y rojos representan las estaciones disponibles.

Ponga el ratón en el punto deseado para ver el nombre de la estación.

Haga clic para ver las observaciones y los pronósticos meteorológicos.

Para cambiar el mapa : haga clic en los botones verdes con una cruz de color negro para hacer un zoom, en el botón verde con un guión para alejar o en las flechas verdes para mapas adyacentes.


METAR-TAF: